MSC Paola — 9HA2581 — position and weather

sailwx.info

Track history (hours):
 
Tides and Currents Weather Stations Pressure Air Temp Water Temp Dewpoint Dewpoint Depression Visibility Wind Speed Wind Dir Waves Ship Positions

MSC Paola

Last reported at 2014-Aug-22 04:34 UTC. Time now 2014-Aug-22 06:01 UTC.
Position N 51°21' E 004°17'.

Length 243 m; draft 8.3 m.

Type: Ship (hazmat cat A). MMSI: 248931000.

Date/timePositionNaut miles runAvg speedWind from/ knotsBaromVisibWave heightAir tempDewpointWater temp
2014-Aug-22 04:34N 51°21' E 004°17'0 0.0
2014-Aug-22 03:34N 51°21' E 004°17'2 1.9
2014-Aug-22 02:33N 51°19' E 004°20'0 0.0
2014-Aug-22 01:33N 51°19' E 004°20'0 0.0
2014-Aug-22 00:30N 51°19' E 004°20'0 0.0
2014-Aug-21 23:33N 51°19' E 004°20'0 0.0
2014-Aug-21 22:33N 51°19' E 004°20'0 0.0
2014-Aug-21 21:32N 51°19' E 004°20'0 0.0
2014-Aug-21 20:32N 51°19' E 004°20'0 0.0
2014-Aug-21 18:17N 51°19' E 004°20'0 0.2
2014-Aug-21 17:29N 51°20' E 004°20'0 0.3
2014-Aug-21 16:31N 51°20' E 004°20'0 0.0
2014-Aug-21 15:28N 51°20' E 004°20'0 0.0
2014-Aug-21 14:31N 51°20' E 004°20'0 0.0
2014-Aug-21 13:31N 51°20' E 004°20'0 0.0
2014-Aug-21 12:31N 51°20' E 004°20'0 0.0
2014-Aug-21 11:31N 51°20' E 004°20'0 0.0
2014-Aug-21 10:28N 51°20' E 004°20'0 0.0
2014-Aug-21 09:28N 51°20' E 004°20'0 0.0
2014-Aug-21 08:31N 51°20' E 004°20'0 0.0
2014-Aug-21 07:28N 51°20' E 004°20'0 0.0
2014-Aug-21 06:31N 51°20' E 004°20'0 0.0
2014-Aug-21 05:31N 51°20' E 004°20'0 0.0
2014-Aug-21 04:31N 51°20' E 004°20'0 0.0
2014-Aug-21 03:31N 51°20' E 004°20'0 0.0
2014-Aug-21 02:31N 51°20' E 004°20'0 0.0
2014-Aug-21 01:31N 51°20' E 004°20'0 0.0
2014-Aug-21 00:31N 51°20' E 004°20'0 0.0
2014-Aug-20 23:28N 51°20' E 004°20'0 0.0
2014-Aug-20 22:16N 51°20' E 004°20'0 0.0
2014-Aug-20 21:10N 51°20' E 004°20'0 0.0
2014-Aug-20 20:28N 51°20' E 004°20'0 0.0
2014-Aug-20 19:31N 51°20' E 004°20'0 0.0
2014-Aug-20 18:31N 51°20' E 004°20'0 0.0
2014-Aug-20 17:28N 51°20' E 004°20'0 0.0
2014-Aug-20 16:31N 51°20' E 004°20'0 0.0
2014-Aug-20 15:31N 51°20' E 004°20'0 0.0
2014-Aug-20 14:28N 51°20' E 004°20'0 0.0
2014-Aug-20 13:31N 51°20' E 004°20'0 0.0
2014-Aug-20 12:28N 51°20' E 004°20'0 0.0
2014-Aug-20 11:25N 51°20' E 004°20'0 0.0
2014-Aug-20 10:31N 51°20' E 004°20'0 0.0
2014-Aug-20 09:28N 51°20' E 004°20'0 0.0
2014-Aug-20 08:30N 51°20' E 004°20'0 0.0
2014-Aug-20 07:30N 51°20' E 004°20'0 0.0
2014-Aug-20 06:27N 51°20' E 004°20'0 0.0
2014-Aug-20 05:33N 51°20' E 004°20'0 0.0
2014-Aug-20 04:33N 51°20' E 004°20'0 0.0
2014-Aug-20 03:33N 51°20' E 004°20'0 0.0
2014-Aug-20 02:30N 51°20' E 004°20'0 0.0
2014-Aug-20 01:33N 51°20' E 004°20'0 0.0
2014-Aug-20 00:33N 51°20' E 004°20'1 1.1
2014-Aug-19 23:33N 51°20' E 004°19'1 1.4
2014-Aug-19 22:34N 51°21' E 004°17'0 0.0
2014-Aug-19 21:34N 51°21' E 004°17'1 0.5
2014-Aug-19 20:33N 51°21' E 004°16'5 4.8
2014-Aug-19 19:33N 51°23' E 004°09'10 9.8
2014-Aug-19 18:33N 51°21' E 003°54'1312.7
2014-Aug-19 17:33N 51°26' E 003°34'1212.2
2014-Aug-19 16:33N 51°25' E 003°15'1010.5
2014-Aug-19 15:33N 51°25' E 002°58'1010.0
2014-Aug-19 14:33N 51°23' E 002°42'4 3.5
2014-Aug-19 13:33N 51°24' E 002°37'0 0.4
2014-Aug-19 12:24N 51°25' E 002°38'0 0.0
2014-Aug-19 11:33N 51°25' E 002°38'0 0.0
2014-Aug-19 10:33N 51°25' E 002°38'0 0.0
2014-Aug-19 09:33N 51°25' E 002°38'0 0.0
2014-Aug-19 08:33N 51°25' E 002°38'0 0.0
2014-Aug-19 07:30N 51°25' E 002°38'0 0.0
2014-Aug-19 06:33N 51°25' E 002°38'0 0.0
2014-Aug-19 05:33N 51°25' E 002°38'0 0.1
2014-Aug-19 04:33N 51°25' E 002°38'0 0.1
2014-Aug-19 03:30N 51°24' E 002°38'0 0.0
2014-Aug-19 02:33N 51°24' E 002°38'0 0.0
2014-Aug-19 01:32N 51°24' E 002°38'4 4.1
2014-Aug-19 00:34N 51°22' E 002°33'1210.9
2014-Aug-18 23:29N 51°18' E 002°15'1111.8
2014-Aug-18 22:33N 51°12' E 002°00'1212.1
2014-Aug-18 21:33N 51°05' E 001°44'1110.6
2014-Aug-18 20:34N 50°57' E 001°33'3610.8
2014-Aug-18 17:11N 50°30' E 000°56'711.7
2014-Aug-18 16:34N 50°27' E 000°46'  
2014-Aug-14 04:34N 31°25' W 010°07'  
Track history (hours):
 
Tides and Currents Weather Stations Pressure Air Temp Water Temp Dewpoint Dewpoint Depression Visibility Wind Speed Wind Dir Waves Ship Positions

MSC Paola

Last reported at 2014-Aug-22 04:34 UTC. Time now 2014-Aug-22 06:01 UTC.
Position N 51°21' E 004°17'.

Length 243 m; draft 8.3 m.

Type: Ship (hazmat cat A). MMSI: 248931000.

Date/timePositionNaut miles runAvg speedWind from/ knotsBaromVisibWave heightAir tempDewpointWater temp
2014-Aug-22 04:34N 51°21' E 004°17'0 0.0
2014-Aug-22 03:34N 51°21' E 004°17'2 1.9
2014-Aug-22 02:33N 51°19' E 004°20'0 0.0
2014-Aug-22 01:33N 51°19' E 004°20'0 0.0
2014-Aug-22 00:30N 51°19' E 004°20'0 0.0
2014-Aug-21 23:33N 51°19' E 004°20'0 0.0
2014-Aug-21 22:33N 51°19' E 004°20'0 0.0
2014-Aug-21 21:32N 51°19' E 004°20'0 0.0
2014-Aug-21 20:32N 51°19' E 004°20'0 0.0
2014-Aug-21 18:17N 51°19' E 004°20'0 0.2
2014-Aug-21 17:29N 51°20' E 004°20'0 0.3
2014-Aug-21 16:31N 51°20' E 004°20'0 0.0
2014-Aug-21 15:28N 51°20' E 004°20'0 0.0
2014-Aug-21 14:31N 51°20' E 004°20'0 0.0
2014-Aug-21 13:31N 51°20' E 004°20'0 0.0
2014-Aug-21 12:31N 51°20' E 004°20'0 0.0
2014-Aug-21 11:31N 51°20' E 004°20'0 0.0
2014-Aug-21 10:28N 51°20' E 004°20'0 0.0
2014-Aug-21 09:28N 51°20' E 004°20'0 0.0
2014-Aug-21 08:31N 51°20' E 004°20'0 0.0
2014-Aug-21 07:28N 51°20' E 004°20'0 0.0
2014-Aug-21 06:31N 51°20' E 004°20'0 0.0
2014-Aug-21 05:31N 51°20' E 004°20'0 0.0
2014-Aug-21 04:31N 51°20' E 004°20'0 0.0
2014-Aug-21 03:31N 51°20' E 004°20'0 0.0
2014-Aug-21 02:31N 51°20' E 004°20'0 0.0
2014-Aug-21 01:31N 51°20' E 004°20'0 0.0
2014-Aug-21 00:31N 51°20' E 004°20'0 0.0
2014-Aug-20 23:28N 51°20' E 004°20'0 0.0
2014-Aug-20 22:16N 51°20' E 004°20'0 0.0
2014-Aug-20 21:10N 51°20' E 004°20'0 0.0
2014-Aug-20 20:28N 51°20' E 004°20'0 0.0
2014-Aug-20 19:31N 51°20' E 004°20'0 0.0
2014-Aug-20 18:31N 51°20' E 004°20'0 0.0
2014-Aug-20 17:28N 51°20' E 004°20'0 0.0
2014-Aug-20 16:31N 51°20' E 004°20'0 0.0
2014-Aug-20 15:31N 51°20' E 004°20'0 0.0
2014-Aug-20 14:28N 51°20' E 004°20'0 0.0
2014-Aug-20 13:31N 51°20' E 004°20'0 0.0
2014-Aug-20 12:28N 51°20' E 004°20'0 0.0
2014-Aug-20 11:25N 51°20' E 004°20'0 0.0
2014-Aug-20 10:31N 51°20' E 004°20'0 0.0
2014-Aug-20 09:28N 51°20' E 004°20'0 0.0
2014-Aug-20 08:30N 51°20' E 004°20'0 0.0
2014-Aug-20 07:30N 51°20' E 004°20'0 0.0
2014-Aug-20 06:27N 51°20' E 004°20'0 0.0
2014-Aug-20 05:33N 51°20' E 004°20'0 0.0
2014-Aug-20 04:33N 51°20' E 004°20'0 0.0
2014-Aug-20 03:33N 51°20' E 004°20'0 0.0
2014-Aug-20 02:30N 51°20' E 004°20'0 0.0
2014-Aug-20 01:33N 51°20' E 004°20'0 0.0
2014-Aug-20 00:33N 51°20' E 004°20'1 1.1
2014-Aug-19 23:33N 51°20' E 004°19'1 1.4
2014-Aug-19 22:34N 51°21' E 004°17'0 0.0
2014-Aug-19 21:34N 51°21' E 004°17'1 0.5
2014-Aug-19 20:33N 51°21' E 004°16'5 4.8
2014-Aug-19 19:33N 51°23' E 004°09'10 9.8
2014-Aug-19 18:33N 51°21' E 003°54'1312.7
2014-Aug-19 17:33N 51°26' E 003°34'1212.2
2014-Aug-19 16:33N 51°25' E 003°15'1010.5
2014-Aug-19 15:33N 51°25' E 002°58'1010.0
2014-Aug-19 14:33N 51°23' E 002°42'4 3.5
2014-Aug-19 13:33N 51°24' E 002°37'0 0.4
2014-Aug-19 12:24N 51°25' E 002°38'0 0.0
2014-Aug-19 11:33N 51°25' E 002°38'0 0.0
2014-Aug-19 10:33N 51°25' E 002°38'0 0.0
2014-Aug-19 09:33N 51°25' E 002°38'0 0.0
2014-Aug-19 08:33N 51°25' E 002°38'0 0.0
2014-Aug-19 07:30N 51°25' E 002°38'0 0.0
2014-Aug-19 06:33N 51°25' E 002°38'0 0.0
2014-Aug-19 05:33N 51°25' E 002°38'0 0.1
2014-Aug-19 04:33N 51°25' E 002°38'0 0.1
2014-Aug-19 03:30N 51°24' E 002°38'0 0.0
2014-Aug-19 02:33N 51°24' E 002°38'0 0.0
2014-Aug-19 01:32N 51°24' E 002°38'4 4.1
2014-Aug-19 00:34N 51°22' E 002°33'1210.9
2014-Aug-18 23:29N 51°18' E 002°15'1111.8
2014-Aug-18 22:33N 51°12' E 002°00'1212.1
2014-Aug-18 21:33N 51°05' E 001°44'1110.6
2014-Aug-18 20:34N 50°57' E 001°33'3610.8
2014-Aug-18 17:11N 50°30' E 000°56'711.7
2014-Aug-18 16:34N 50°27' E 000°46'  
2014-Aug-14 04:34N 31°25' W 010°07'  

Dump ship's entire track history